11:26
Airports
Links
Donate
Help keep this website running!
PayPal
Bitcoin
METAR
LRBS 201100Z 04013KT 010V070 9999 SCT032 BKN047 00/M04 Q1021 R07/19//95 NOSIG
Current Weather Conditions at LRBS
VFR 11:00:00 20-02-18
Altimeter:30.15 hg
Temp:0.0°c 32°f
Dew point:-4.0°c 25°f
Wind:13 knots, 15 mph, 7 m/s, from 40°
Visibility:6.21 statute miles
4700(BKN) Broken
3200(SCT) Scattered
No significant weather changes expected within 2 hours.
Past METAR reports
MVFR 10:30:00 20-02-18
Altimeter:30.15 hg
Temp:0.0°c 32°f
Dew point:-3.0°c 27°f
Wind:16 knots, 18.4 mph, 8 m/s, from 60°
Visibility:4.97 statute miles
3700(BKN) Broken
1700(FEW) A few
No significant weather changes expected within 2 hours.
LRBS 201030Z 06016KT 8000 -SN FEW017 BKN037 M00/M03 Q1021 R07/19//95 NOSIG
MVFR 10:00:00 20-02-18
Altimeter:30.18 hg
Temp:0.0°c 32°f
Dew point:-4.0°c 25°f
Wind:13 knots, 15 mph, 7 m/s, from 50°
Visibility:4.97 statute miles
4700(OVC) Overcast
3700(BKN) Broken
2000(FEW) A few
LRBS 201000Z 05013KT 020V080 8000 -SN FEW020 BKN037 OVC047 M00/M04 Q1022 R07/19//95 TEMPO 5000 -SN
MVFR 09:30:00 20-02-18
Altimeter:30.18 hg
Temp:0.0°c 32°f
Dew point:-4.0°c 25°f
Wind:13 knots, 15 mph, 7 m/s, from 50°
Visibility:6.21 statute miles
4000(OVC) Overcast
2300(BKN) Broken
LRBS 200930Z 05013KT 010V090 9999 -SN BKN023 OVC040 M00/M04 Q1022 R07/19//95 TEMPO 5000 -SN
MVFR 09:00:00 20-02-18
Altimeter:30.18 hg
Temp:0.0°c 32°f
Dew point:-4.0°c 25°f
Wind:11 knots, 12.7 mph, 6 m/s, from 50°
Visibility:4.97 statute miles
2300(OVC) Overcast
1700(BKN) Broken
LRBS 200900Z 05011KT 8000 -SN BKN017 OVC023 M00/M04 Q1022 R07/19//95 TEMPO 5000 -SN
MVFR 08:30:00 20-02-18
Altimeter:30.18 hg
Temp:0.0°c 32°f
Dew point:-3.0°c 27°f
Wind:12 knots, 13.8 mph, 6 m/s, from 50°
Visibility:6.21 statute miles
1700(OVC) Overcast
LRBS 200830Z 05012KT 020V090 9999 OVC017 M00/M03 Q1022 R07/19//95 TEMPO 5000 -SN
MVFR 08:00:00 20-02-18
Altimeter:30.18 hg
Temp:-1.0°c 30°f
Dew point:-3.0°c 27°f
Wind:13 knots, 15 mph, 7 m/s, from 50°
Visibility:6.21 statute miles
2200(OVC) Overcast
1200(FEW) A few
No significant weather changes expected within 2 hours.
LRBS 200800Z 05013KT 020V090 9999 FEW012 OVC022 M01/M03 Q1022 R07/19//95 NOSIG
TAF
TAF LRBS 200500Z 2006/2106 06014KT 7000 -SN SCT010 OVC025 TEMPO 2006/2018 3000 -SN BR BKN010 OVC025 BECMG 2018/2020 5000 -SN BR BKN010 OVC025 PROB40 TEMPO 2021/2104 3000 -SN BR BKN005 OVC020
Forecast at LRBS
06:00 20-02-18 to 18:00 20-02-18
-SN
Wind:14 Knots from 60°
Visibility:4.35 statute miles
1000SCT Scattered
2500OVC Overcast
TEMPO 06:00 20-02-18 to 18:00 20-02-18
-SN BR
Visibility:1.86 statute miles
1000BKN Broken
2500OVC Overcast
BECMG 18:00 20-02-18 to 06:00 21-02-18
-SN BR
Wind:14 Knots from 60°
Visibility:3.11 statute miles
1000BKN Broken
2500OVC Overcast
TEMPO 21:00 20-02-18 to 04:00 21-02-18
40% -SN BR
Visibility:1.86 statute miles
500BKN Broken
2000OVC Overcast